Time;durP1;ratioP1;P1;durP2;ratioP2;P2;SDS_P1;SDS_P2;PMS_P1;PMS_P2;Temp;Humidity;BMP_temperature;BMP_pressure;BME280_temperature;BME280_humidity;BME280_pressure;Samples;Min_cycle;Max_cycle;Signal;HPM_P1;HPM_P2
2021/09/12 00:02:16;;;;;;;6.87;4.30;;;16.40;99.90;;;;;;5091062;28;20224;-64
2021/09/12 00:04:43;;;;;;;6.27;4.30;;;16.40;99.90;;;;;;5090825;28;20286;-64
2021/09/12 00:07:10;;;;;;;4.57;3.73;;;16.40;99.90;;;;;;5090842;28;20211;-64
2021/09/12 00:09:38;;;;;;;4.50;4.10;;;16.30;99.90;;;;;;5090615;28;20208;-65
2021/09/12 00:12:05;;;;;;;9.27;4.27;;;16.20;99.90;;;;;;5090658;28;20228;-65
2021/09/12 00:14:32;;;;;;;5.77;4.40;;;16.20;99.90;;;;;;5090536;28;20204;-65
2021/09/12 00:16:59;;;;;;;9.00;4.00;;;16.20;99.90;;;;;;5090583;28;20211;-63
2021/09/12 00:19:26;;;;;;;4.97;4.40;;;16.20;99.90;;;;;;5090365;28;20692;-65
2021/09/12 00:21:53;;;;;;;6.00;4.13;;;16.10;99.90;;;;;;5090484;28;20590;-64
2021/09/12 00:24:19;;;;;;;6.70;4.10;;;16.10;99.90;;;;;;5094120;28;20262;-64
2021/09/12 00:26:47;;;;;;;6.27;4.20;;;16.10;99.90;;;;;;5094749;28;20230;-64
2021/09/12 00:29:14;;;;;;;6.00;3.93;;;16.10;99.90;;;;;;5094001;28;20204;-64
2021/09/12 00:31:41;;;;;;;8.77;4.17;;;16.00;99.90;;;;;;5094129;28;20211;-63
2021/09/12 00:34:08;;;;;;;5.67;4.00;;;16.00;99.90;;;;;;5094028;28;20208;-64
2021/09/12 00:36:35;;;;;;;7.00;4.00;;;16.00;99.90;;;;;;5093800;28;20579;-64
2021/09/12 00:39:01;;;;;;;4.30;3.90;;;16.00;99.90;;;;;;5093928;28;20672;-64
2021/09/12 00:41:37;;;;;;;4.50;3.70;;;16.00;99.90;;;;;;5094058;28;20227;-65
2021/09/12 00:44:09;;;;;;;5.97;4.07;;;15.90;99.90;;;;;;5093706;28;20242;-64
2021/09/12 00:46:38;;;;;;;4.60;3.90;;;15.90;99.90;;;;;;5093902;28;20311;-64
2021/09/12 00:49:05;;;;;;;9.67;4.60;;;15.90;99.90;;;;;;5093975;28;20637;-64
2021/09/12 00:51:31;;;;;;;5.87;4.33;;;15.80;99.90;;;;;;5093840;28;20631;-65
2021/09/12 00:53:59;;;;;;;8.43;4.43;;;15.80;99.90;;;;;;5094116;28;20200;-64
2021/09/12 00:56:27;;;;;;;10.07;4.77;;;15.70;99.90;;;;;;5093880;28;20684;-64
2021/09/12 00:58:56;;;;;;;5.60;4.03;;;15.70;99.90;;;;;;5093708;28;20239;-65
2021/09/12 01:01:25;;;;;;;5.80;4.23;;;15.60;99.90;;;;;;5093644;28;20231;-64
2021/09/12 01:03:53;;;;;;;5.33;4.27;;;15.60;99.90;;;;;;5094029;28;20292;-64
2021/09/12 01:06:19;;;;;;;4.97;4.30;;;15.60;99.90;;;;;;5093935;28;20208;-64
2021/09/12 01:08:46;;;;;;;4.40;4.00;;;15.60;99.90;;;;;;5093538;28;20204;-65
2021/09/12 01:11:13;;;;;;;5.40;4.23;;;15.60;99.90;;;;;;5093839;28;20668;-64
2021/09/12 01:13:41;;;;;;;7.00;4.40;;;15.60;99.90;;;;;;5093510;28;20232;-63
2021/09/12 01:16:13;;;;;;;8.33;4.80;;;15.50;99.90;;;;;;5093947;28;20242;-64
2021/09/12 01:18:43;;;;;;;4.63;4.17;;;15.50;99.90;;;;;;5093664;28;20686;-64
2021/09/12 01:21:11;;;;;;;6.23;4.20;;;15.50;99.90;;;;;;5094222;28;20434;-65
2021/09/12 01:23:38;;;;;;;8.67;4.23;;;15.40;99.90;;;;;;5093331;28;20627;-65
2021/09/12 01:26:06;;;;;;;5.33;4.43;;;15.30;99.90;;;;;;5093650;28;20205;-65
2021/09/12 01:28:33;;;;;;;5.03;4.20;;;15.30;99.90;;;;;;5093794;28;20208;-64
2021/09/12 01:31:00;;;;;;;6.60;4.50;;;15.30;99.90;;;;;;5093599;28;20663;-65
2021/09/12 01:33:27;;;;;;;6.83;4.40;;;15.30;99.90;;;;;;5093478;28;20232;-64
2021/09/12 01:35:54;;;;;;;5.97;4.70;;;15.30;99.90;;;;;;5093635;28;20212;-65
2021/09/12 01:38:21;;;;;;;7.27;4.53;;;15.30;99.90;;;;;;5093125;28;20213;-65
2021/09/12 01:40:47;;;;;;;6.47;5.00;;;15.30;99.90;;;;;;5093610;28;20227;-65
2021/09/12 01:43:19;;;;;;;5.07;4.50;;;15.30;99.90;;;;;;5093241;28;20228;-64
2021/09/12 01:45:46;;;;;;;6.90;4.40;;;15.20;99.90;;;;;;5092811;28;20208;-64
2021/09/12 01:48:13;;;;;;;9.60;5.03;;;15.20;99.90;;;;;;5092754;28;20294;-64
2021/09/12 01:50:39;;;;;;;6.77;4.77;;;15.10;99.90;;;;;;5092761;28;20203;-63
2021/09/12 01:53:06;;;;;;;6.43;4.57;;;15.10;99.90;;;;;;5092775;28;20235;-64
2021/09/12 01:55:33;;;;;;;8.07;4.23;;;15.10;99.90;;;;;;5092523;28;20294;-64
2021/09/12 01:57:59;;;;;;;6.43;4.37;;;15.10;99.90;;;;;;5092660;28;20209;-65
2021/09/12 02:00:27;;;;;;;6.33;4.90;;;15.10;99.90;;;;;;5092389;28;20224;-64
2021/09/12 02:02:54;;;;;;;6.23;4.30;;;15.10;99.90;;;;;;5092732;28;20572;-65
2021/09/12 02:05:21;;;;;;;5.90;4.77;;;15.10;99.90;;;;;;5092387;28;20208;-63
2021/09/12 02:07:48;;;;;;;4.87;4.40;;;15.00;99.90;;;;;;5092262;28;20203;-64
2021/09/12 02:10:14;;;;;;;5.10;4.40;;;15.10;99.90;;;;;;5092681;28;20211;-66
2021/09/12 02:12:41;;;;;;;5.83;4.33;;;15.00;99.90;;;;;;5092709;28;20227;-63
2021/09/12 02:15:08;;;;;;;4.47;4.07;;;15.00;99.90;;;;;;5092355;28;20208;-65
2021/09/12 02:17:36;;;;;;;4.80;4.23;;;15.00;99.90;;;;;;5093715;28;20208;-63
2021/09/12 02:20:04;;;;;;;5.13;4.00;;;15.00;99.90;;;;;;5093649;28;20204;-63
2021/09/12 02:22:31;;;;;;;6.90;4.07;;;15.00;99.90;;;;;;5093378;28;20813;-63
2021/09/12 02:24:58;;;;;;;4.87;4.00;;;14.90;99.90;;;;;;5093963;28;20200;-64
2021/09/12 02:27:24;;;;;;;4.73;3.90;;;14.90;99.90;;;;;;5093531;28;20239;-65
2021/09/12 02:29:51;;;;;;;5.90;4.23;;;14.80;99.90;;;;;;5092851;28;20215;-65
2021/09/12 02:32:18;;;;;;;4.70;3.90;;;14.80;99.90;;;;;;5092821;28;20239;-64
2021/09/12 02:34:46;;;;;;;5.03;3.90;;;14.80;99.90;;;;;;5092832;28;20728;-64
2021/09/12 02:37:12;;;;;;;4.23;3.83;;;14.70;99.90;;;;;;5092876;28;20200;-65
2021/09/12 02:39:39;;;;;;;4.53;4.07;;;14.70;99.90;;;;;;5091968;28;20208;-65
2021/09/12 02:42:06;;;;;;;7.23;4.43;;;14.70;99.90;;;;;;5092090;28;20236;-65
2021/09/12 02:44:33;;;;;;;5.50;3.90;;;14.70;99.90;;;;;;5092064;28;20219;-64
2021/09/12 02:47:00;;;;;;;4.23;3.83;;;14.70;99.90;;;;;;5091833;28;20763;-64
2021/09/12 02:49:27;;;;;;;5.23;3.90;;;14.70;99.90;;;;;;5091904;28;20663;-63
2021/09/12 02:51:55;;;;;;;5.00;3.60;;;14.60;99.90;;;;;;5092281;28;20220;-65
2021/09/12 02:54:21;;;;;;;5.83;3.87;;;14.60;99.90;;;;;;5091815;28;20211;-64
2021/09/12 02:56:48;;;;;;;6.03;3.83;;;14.60;99.90;;;;;;5092294;28;20212;-63
2021/09/12 02:59:15;;;;;;;5.63;3.90;;;14.60;99.90;;;;;;5092179;28;20204;-63
2021/09/12 03:01:41;;;;;;;4.33;3.87;;;14.50;99.90;;;;;;5092444;28;20610;-63
2021/09/12 03:04:08;;;;;;;4.33;3.93;;;14.50;99.90;;;;;;5092022;28;20200;-65
2021/09/12 03:06:35;;;;;;;4.57;3.63;;;14.50;99.90;;;;;;5092510;28;20214;-64
2021/09/12 03:09:03;;;;;;;6.57;4.00;;;14.50;99.90;;;;;;5091968;28;20208;-64
2021/09/12 03:11:30;;;;;;;6.27;4.37;;;14.50;99.90;;;;;;5091601;28;20204;-64
2021/09/12 03:13:56;;;;;;;4.30;3.90;;;14.50;99.90;;;;;;5091445;28;20694;-64
2021/09/12 03:16:24;;;;;;;5.13;4.20;;;14.50;99.90;;;;;;5091932;28;20207;-64
2021/09/12 03:18:51;;;;;;;5.40;3.63;;;14.50;99.90;;;;;;5092480;28;20203;-66
2021/09/12 03:21:18;;;;;;;4.33;3.93;;;14.40;99.90;;;;;;5092409;28;20224;-67
2021/09/12 03:23:45;;;;;;;4.10;3.70;;;14.40;99.90;;;;;;5092569;28;20227;-64
2021/09/12 03:26:13;;;;;;;4.10;3.70;;;14.30;99.90;;;;;;5092988;28;20208;-67
2021/09/12 03:28:40;;;;;;;4.40;4.00;;;14.30;99.90;;;;;;5092814;28;20240;-64
2021/09/12 03:31:07;;;;;;;4.07;3.67;;;14.30;99.90;;;;;;5092577;28;20204;-63
2021/09/12 03:33:34;;;;;;;4.00;3.60;;;14.30;99.90;;;;;;5100475;22;20240;-62
2021/09/12 03:36:00;;;;;;;4.17;3.77;;;14.20;99.90;;;;;;5070956;28;20208;-62
2021/09/12 03:38:27;;;;;;;4.27;3.80;;;14.00;99.90;;;;;;5070645;28;20212;-62
2021/09/12 03:40:54;;;;;;;4.07;3.50;;;14.00;99.90;;;;;;5070987;28;20278;-62
2021/09/12 03:43:22;;;;;;;4.80;3.97;;;14.00;99.90;;;;;;5070507;28;20289;-62
2021/09/12 03:45:49;;;;;;;4.27;3.87;;;14.00;99.90;;;;;;5070823;28;20212;-63
2021/09/12 03:48:15;;;;;;;5.43;3.80;;;13.90;99.90;;;;;;5070595;28;20208;-62
2021/09/12 03:50:42;;;;;;;4.43;3.80;;;13.90;99.90;;;;;;5071031;28;20204;-62
2021/09/12 03:53:09;;;;;;;4.90;3.53;;;13.80;99.90;;;;;;5070475;28;20643;-62
2021/09/12 03:55:35;;;;;;;5.63;3.40;;;13.80;99.90;;;;;;5070469;28;20213;-62
2021/09/12 03:58:02;;;;;;;3.87;3.57;;;13.70;99.90;;;;;;5071905;28;20244;-62
2021/09/12 04:00:30;;;;;;;4.30;3.90;;;13.70;99.90;;;;;;5074413;28;20204;-62
2021/09/12 04:02:56;;;;;;;4.03;3.70;;;13.70;99.90;;;;;;5074394;28;20306;-62
2021/09/12 04:05:23;;;;;;;4.57;3.30;;;13.70;99.90;;;;;;5074156;28;20205;-63
2021/09/12 04:07:50;;;;;;;3.73;3.43;;;13.70;99.90;;;;;;5073859;28;20676;-63
2021/09/12 04:10:17;;;;;;;5.10;4.00;;;13.70;99.90;;;;;;5073932;28;20723;-63
2021/09/12 04:12:44;;;;;;;4.03;3.70;;;13.60;99.90;;;;;;5073919;28;20224;-63
2021/09/12 04:15:11;;;;;;;4.77;3.90;;;13.60;99.90;;;;;;5073917;28;20211;-63
2021/09/12 04:17:40;;;;;;;4.20;3.80;;;13.60;99.90;;;;;;5073894;28;20683;-63
2021/09/12 04:20:07;;;;;;;3.90;3.57;;;13.60;99.90;;;;;;5074280;28;20228;-63
2021/09/12 04:22:34;;;;;;;6.07;3.80;;;13.60;99.90;;;;;;5073599;28;20606;-63
2021/09/12 04:25:01;;;;;;;5.70;3.57;;;13.50;99.90;;;;;;5073629;28;20216;-63
2021/09/12 04:27:28;;;;;;;5.03;3.83;;;13.50;99.90;;;;;;5073849;28;20212;-63
2021/09/12 04:29:55;;;;;;;4.40;4.00;;;13.50;99.90;;;;;;5073842;28;20215;-63
2021/09/12 04:32:22;;;;;;;4.93;4.43;;;13.50;99.90;;;;;;5073796;28;20664;-63
2021/09/12 04:34:50;;;;;;;4.33;3.93;;;13.50;99.90;;;;;;5073836;28;20212;-63
2021/09/12 04:37:16;;;;;;;4.20;3.60;;;13.50;99.90;;;;;;5073789;28;20616;-63
2021/09/12 04:39:43;;;;;;;4.10;3.80;;;13.50;99.90;;;;;;5073433;28;20204;-63
2021/09/12 04:42:10;;;;;;;4.13;3.53;;;13.50;99.90;;;;;;5073684;28;20232;-63
2021/09/12 04:44:37;;;;;;;3.90;3.60;;;13.50;99.90;;;;;;5073469;28;20204;-63
2021/09/12 04:47:04;;;;;;;4.00;3.47;;;13.50;99.90;;;;;;5073579;28;20205;-63
2021/09/12 04:49:31;;;;;;;6.53;3.57;;;13.50;99.90;;;;;;5073101;28;20255;-63
2021/09/12 04:51:59;;;;;;;4.97;3.53;;;13.50;99.90;;;;;;5073309;28;20216;-62
2021/09/12 04:54:25;;;;;;;3.43;3.13;;;13.50;99.90;;;;;;5073608;28;20540;-62
2021/09/12 04:56:52;;;;;;;3.90;3.50;;;13.40;99.90;;;;;;5073403;28;20213;-62
2021/09/12 04:59:19;;;;;;;4.03;3.47;;;13.50;99.90;;;;;;5073225;28;20205;-62
2021/09/12 05:01:45;;;;;;;3.67;3.37;;;13.50;99.90;;;;;;5072966;28;20232;-63
2021/09/12 05:04:12;;;;;;;4.40;3.53;;;13.50;99.90;;;;;;5072999;28;20255;-63
2021/09/12 05:06:39;;;;;;;3.60;3.30;;;13.50;99.90;;;;;;5073510;28;20205;-62
2021/09/12 05:09:07;;;;;;;3.80;3.50;;;13.50;99.90;;;;;;5072329;28;20205;-62
2021/09/12 05:11:33;;;;;;;5.60;4.30;;;13.60;99.90;;;;;;5073140;28;20201;-63
2021/09/12 05:14:00;;;;;;;3.90;3.53;;;13.60;99.90;;;;;;5072900;28;20232;-63
2021/09/12 05:16:27;;;;;;;3.67;3.37;;;13.70;99.90;;;;;;5072940;28;20208;-63
2021/09/12 05:18:54;;;;;;;3.30;3.00;;;13.70;99.90;;;;;;5073624;28;20332;-63
2021/09/12 05:21:20;;;;;;;4.77;3.27;;;13.70;99.90;;;;;;5072828;28;20732;-63
2021/09/12 05:23:47;;;;;;;3.30;2.73;;;13.70;99.90;;;;;;5072338;28;20652;-63
2021/09/12 05:26:15;;;;;;;4.60;3.07;;;13.70;99.90;;;;;;5072872;28;20201;-63
2021/09/12 05:28:42;;;;;;;3.50;3.20;;;13.80;99.90;;;;;;5072684;28;20212;-63
2021/09/12 05:31:09;;;;;;;3.67;3.37;;;13.80;99.90;;;;;;5072773;28;20205;-63
2021/09/12 05:33:36;;;;;;;3.20;2.90;;;13.90;99.90;;;;;;5072287;28;20233;-63
2021/09/12 05:36:02;;;;;;;3.77;3.37;;;14.00;99.90;;;;;;5072311;28;20205;-63
2021/09/12 05:38:29;;;;;;;3.87;3.47;;;14.00;99.90;;;;;;5072194;28;20204;-62
2021/09/12 05:40:56;;;;;;;3.70;3.40;;;14.10;99.90;;;;;;5072569;28;20232;-63
2021/09/12 05:43:24;;;;;;;4.30;3.90;;;14.20;99.90;;;;;;5072310;28;20235;-63
2021/09/12 05:45:50;;;;;;;3.73;3.43;;;14.40;99.90;;;;;;5072674;28;20568;-63
2021/09/12 05:48:17;;;;;;;3.40;3.10;;;14.40;99.90;;;;;;5072461;28;20684;-62
2021/09/12 05:50:44;;;;;;;4.30;3.10;;;14.50;99.90;;;;;;5072459;28;20216;-62
2021/09/12 05:53:12;;;;;;;4.57;3.20;;;14.60;99.90;;;;;;5072316;28;20778;-62
2021/09/12 05:55:40;;;;;;;5.37;3.00;;;14.80;99.90;;;;;;5072291;28;20299;-63
2021/09/12 05:58:07;;;;;;;3.27;2.97;;;15.40;99.90;;;;;;5072125;28;20231;-63
2021/09/12 06:00:35;;;;;;;2.40;2.20;;;16.40;99.90;;;;;;5072410;28;20250;-63
2021/09/12 06:03:01;;;;;;;2.08;1.85;;;17.60;99.90;;;;;;5072421;28;20636;-63
2021/09/12 06:05:28;;;;;;;1.70;1.60;;;18.60;99.90;;;;;;5072758;28;20209;-63
2021/09/12 06:07:55;;;;;;;1.83;1.73;;;19.30;99.90;;;;;;5072953;28;20208;-63
2021/09/12 06:10:22;;;;;;;1.80;1.70;;;20.00;99.90;;;;;;5073120;28;20219;-63
2021/09/12 06:12:48;;;;;;;2.38;2.17;;;21.00;99.90;;;;;;5072699;28;20217;-63
2021/09/12 06:15:15;;;;;;;2.00;1.80;;;21.90;99.90;;;;;;5072081;28;20213;-64
2021/09/12 06:17:43;;;;;;;1.90;1.80;;;22.60;99.90;;;;;;5072077;28;20213;-64
2021/09/12 06:20:11;;;;;;;1.70;1.60;;;23.10;99.90;;;;;;5071028;28;20209;-64
2021/09/12 06:22:42;;;;;;;1.88;1.20;;;23.60;99.90;;;;;;5071947;28;20621;-63
2021/09/12 06:25:10;;;;;;;1.58;1.48;;;24.10;99.90;;;;;;5071692;28;20277;-63
2021/09/12 06:27:36;;;;;;;1.80;1.70;;;24.80;99.90;;;;;;5071649;28;20209;-64
2021/09/12 06:30:04;;;;;;;2.92;2.20;;;25.30;99.90;;;;;;5071333;28;20221;-64
2021/09/12 06:32:30;;;;;;;3.03;1.85;;;25.80;99.90;;;;;;5071208;28;20232;-64
2021/09/12 06:34:58;;;;;;;2.25;1.70;;;26.20;99.90;;;;;;5071301;28;20530;-64
2021/09/12 06:37:25;;;;;;;2.75;1.40;;;26.60;99.90;;;;;;5071633;28;20208;-63
2021/09/12 06:39:52;;;;;;;1.40;1.30;;;26.80;99.90;;;;;;5071222;28;20204;-63
2021/09/12 06:42:19;;;;;;;1.90;1.70;;;27.10;99.90;;;;;;5071429;28;20615;-63
2021/09/12 06:44:45;;;;;;;3.75;2.20;;;27.20;99.90;;;;;;5071370;28;20205;-63
2021/09/12 06:47:12;;;;;;;2.42;2.22;;;27.40;99.90;;;;;;5071624;28;20220;-63
2021/09/12 06:49:39;;;;;;;1.75;1.10;;;27.70;99.90;;;;;;5070850;28;20664;-63
2021/09/12 06:52:07;;;;;;;1.33;1.23;;;27.90;99.90;;;;;;5071056;28;20708;-63
2021/09/12 06:54:34;;;;;;;2.42;1.35;;;28.00;99.90;;;;;;5070771;28;20215;-64
2021/09/12 06:57:01;;;;;;;1.60;1.50;;;28.30;99.90;;;;;;5071024;28;20213;-62
2021/09/12 06:59:27;;;;;;;2.17;1.50;;;28.80;99.90;;;;;;5071016;28;20200;-63
2021/09/12 07:01:54;;;;;;;1.27;1.17;;;29.20;98.70;;;;;;5071260;28;20459;-61
2021/09/12 07:04:21;;;;;;;1.30;1.20;;;29.60;97.80;;;;;;5071068;28;20296;-62
2021/09/12 07:06:47;;;;;;;1.02;0.98;;;30.10;96.20;;;;;;5070910;28;20200;-62
2021/09/12 07:09:15;;;;;;;0.85;0.85;;;30.40;95.10;;;;;;5070958;28;20204;-62
2021/09/12 07:11:42;;;;;;;3.05;1.38;;;30.70;93.90;;;;;;5070936;28;20212;-62
2021/09/12 07:14:09;;;;;;;1.73;1.60;;;31.00;93.10;;;;;;5070287;28;20212;-63
2021/09/12 07:16:35;;;;;;;1.70;1.60;;;31.10;92.30;;;;;;5071006;28;20204;-63
2021/09/12 07:19:07;;;;;;;1.80;1.70;;;31.30;91.80;;;;;;5070733;28;20204;-61
2021/09/12 07:21:34;;;;;;;1.63;1.20;;;31.40;90.70;;;;;;5070749;28;20205;-62
2021/09/12 07:24:00;;;;;;;1.48;1.38;;;31.20;90.70;;;;;;5070431;28;20232;-62
2021/09/12 07:26:28;;;;;;;2.58;1.58;;;30.80;91.30;;;;;;5070654;28;20464;-62
2021/09/12 07:28:55;;;;;;;2.67;2.47;;;30.70;91.50;;;;;;5070519;28;20200;-62
2021/09/12 07:31:22;;;;;;;1.90;1.80;;;31.00;91.10;;;;;;5071323;28;20205;-62
2021/09/12 07:33:49;;;;;;;2.08;1.55;;;31.50;90.30;;;;;;5074491;28;20244;-61
2021/09/12 07:36:15;;;;;;;2.10;1.70;;;31.60;88.80;;;;;;5074730;28;20200;-62
2021/09/12 07:38:42;;;;;;;2.70;1.83;;;31.70;88.20;;;;;;5074506;28;20209;-62
2021/09/12 07:41:09;;;;;;;2.00;1.90;;;31.60;88.60;;;;;;5074541;28;20212;-61
2021/09/12 07:43:37;;;;;;;2.85;2.00;;;31.50;88.50;;;;;;5074776;28;20282;-63
2021/09/12 07:46:04;;;;;;;2.30;1.90;;;31.00;89.50;;;;;;5074743;28;20205;-62
2021/09/12 07:48:30;;;;;;;2.40;1.95;;;30.90;90.00;;;;;;5074533;28;20207;-62
2021/09/12 07:50:57;;;;;;;3.20;2.90;;;31.00;89.70;;;;;;5074500;28;20204;-62
2021/09/12 07:53:24;;;;;;;4.30;3.83;;;31.20;89.40;;;;;;5074198;28;20274;-61
2021/09/12 07:55:50;;;;;;;2.47;2.28;;;30.90;90.00;;;;;;5074941;28;20212;-61
2021/09/12 07:58:17;;;;;;;3.00;2.80;;;30.40;90.90;;;;;;5074315;28;20201;-61
2021/09/12 08:00:45;;;;;;;2.97;2.78;;;29.00;92.60;;;;;;5074954;28;20205;-62
2021/09/12 08:03:12;;;;;;;2.88;2.67;;;27.40;95.20;;;;;;5074130;28;20225;-61
2021/09/12 08:05:38;;;;;;;3.00;2.75;;;25.80;98.50;;;;;;5074065;28;20629;-62
2021/09/12 08:08:05;;;;;;;4.78;2.60;;;24.50;99.90;;;;;;5073956;28;20204;-62
2021/09/12 08:10:32;;;;;;;3.08;2.78;;;23.40;99.90;;;;;;5073944;28;20208;-62
2021/09/12 08:12:58;;;;;;;3.42;3.10;;;22.70;99.90;;;;;;5073992;28;20232;-62
2021/09/12 08:15:25;;;;;;;4.72;4.20;;;22.20;99.90;;;;;;5074064;28;20391;-62
2021/09/12 08:17:53;;;;;;;4.18;3.78;;;22.00;99.90;;;;;;5073953;28;20668;-62
2021/09/12 08:20:20;;;;;;;4.68;3.17;;;21.80;99.90;;;;;;5074016;28;20208;-63
2021/09/12 08:22:47;;;;;;;3.10;2.90;;;21.60;99.90;;;;;;5073799;28;20265;-62
2021/09/12 08:25:14;;;;;;;2.88;2.67;;;21.60;99.90;;;;;;5073984;28;20243;-63
2021/09/12 08:27:41;;;;;;;3.38;3.08;;;21.50;99.90;;;;;;5074065;28;20291;-62
2021/09/12 08:30:09;;;;;;;3.38;3.08;;;21.30;99.90;;;;;;5074048;28;20201;-65
2021/09/12 08:32:35;;;;;;;4.18;3.53;;;21.20;99.90;;;;;;5073896;28;20233;-62
2021/09/12 08:35:05;;;;;;;4.13;3.72;;;21.20;99.90;;;;;;5074035;28;20211;-62
2021/09/12 08:37:32;;;;;;;2.88;2.67;;;21.10;99.90;;;;;;5073965;28;20235;-63
2021/09/12 08:39:59;;;;;;;3.63;2.85;;;21.10;99.90;;;;;;5073587;28;20209;-63
2021/09/12 08:42:26;;;;;;;2.78;2.53;;;20.90;99.90;;;;;;5073478;28;20225;-63
2021/09/12 08:44:53;;;;;;;4.40;2.75;;;20.90;99.90;;;;;;5072593;28;20220;-62
2021/09/12 08:47:20;;;;;;;3.55;2.83;;;20.80;99.90;;;;;;5073814;28;20681;-63
2021/09/12 08:49:48;;;;;;;3.05;2.60;;;20.70;99.90;;;;;;5073356;28;20204;-62
2021/09/12 08:52:16;;;;;;;4.72;2.70;;;20.70;99.90;;;;;;5073708;28;20286;-62
2021/09/12 08:54:43;;;;;;;3.53;3.20;;;20.80;99.90;;;;;;5073458;28;20227;-62
2021/09/12 08:57:09;;;;;;;3.47;3.17;;;20.80;99.90;;;;;;5073677;28;20208;-62
2021/09/12 08:59:36;;;;;;;3.72;3.15;;;20.90;99.90;;;;;;5073246;28;20212;-63
2021/09/12 09:02:05;;;;;;;3.45;3.05;;;21.00;99.90;;;;;;5072991;28;20209;-62
2021/09/12 09:04:33;;;;;;;3.45;2.90;;;21.10;99.90;;;;;;5072618;28;20274;-62
2021/09/12 09:07:02;;;;;;;3.17;2.88;;;21.20;99.90;;;;;;5073248;28;20209;-62
2021/09/12 09:09:41;;;;;;;3.38;2.88;;;21.20;99.90;;;;;;5073013;28;20695;-62
2021/09/12 09:12:25;;;;;;;2.70;2.50;;;21.20;99.90;;;;;;5073122;28;20224;-63
2021/09/12 09:15:07;;;;;;;3.92;3.00;;;21.20;99.90;;;;;;5072499;28;20204;-63
2021/09/12 09:17:37;;;;;;;3.70;3.00;;;21.10;99.90;;;;;;5072787;28;20695;-63
2021/09/12 09:20:07;;;;;;;2.80;2.50;;;21.20;99.90;;;;;;5073081;28;20236;-62
2021/09/12 09:22:35;;;;;;;3.58;3.20;;;21.40;99.90;;;;;;5072919;28;20307;-63
2021/09/12 09:25:09;;;;;;;2.53;2.33;;;21.60;99.90;;;;;;5072674;28;20580;-63
2021/09/12 09:27:54;;;;;;;4.28;2.45;;;21.60;99.90;;;;;;5072956;28;20208;-64
2021/09/12 09:30:21;;;;;;;2.80;2.50;;;21.70;99.90;;;;;;5072812;28;20752;-64
2021/09/12 09:32:47;;;;;;;2.40;1.98;;;21.80;99.90;;;;;;5102475;22;20243;-55
2021/09/12 09:35:22;;;;;;;3.97;2.10;;;21.70;99.90;;;;;;5093196;28;20254;-55
2021/09/12 09:37:49;;;;;;;3.65;2.03;;;21.70;99.90;;;;;;5092902;28;20238;-56
2021/09/12 09:40:18;;;;;;;3.03;1.92;;;21.80;99.90;;;;;;5092889;28;20663;-56
2021/09/12 09:42:45;;;;;;;2.28;1.60;;;21.80;99.90;;;;;;5092784;28;20756;-55
2021/09/12 09:45:14;;;;;;;6.10;1.98;;;22.00;99.90;;;;;;5092682;28;20204;-56
2021/09/12 09:47:42;;;;;;;3.15;1.52;;;22.10;99.90;;;;;;5093081;28;20204;-56
2021/09/12 09:50:12;;;;;;;1.40;1.30;;;22.30;99.90;;;;;;5092751;28;20290;-56
2021/09/12 09:52:40;;;;;;;1.83;1.50;;;22.30;99.90;;;;;;5092596;28;20220;-56
2021/09/12 09:55:08;;;;;;;2.65;1.40;;;22.20;99.90;;;;;;5091314;28;20708;-56
2021/09/12 09:57:36;;;;;;;3.08;1.98;;;22.30;99.90;;;;;;5092565;28;20204;-56
2021/09/12 10:00:05;;;;;;;1.75;1.35;;;22.40;99.90;;;;;;5092637;28;20628;-55
2021/09/12 10:02:34;;;;;;;1.85;1.30;;;22.40;99.90;;;;;;5092514;28;20224;-57
2021/09/12 10:05:02;;;;;;;1.58;1.15;;;22.40;99.90;;;;;;5092365;28;20613;-56
2021/09/12 10:07:30;;;;;;;1.55;1.33;;;22.40;99.90;;;;;;5092326;28;20212;-56
2021/09/12 10:09:56;;;;;;;1.48;1.20;;;22.30;99.90;;;;;;5092264;28;20745;-56
2021/09/12 10:12:23;;;;;;;1.98;1.30;;;22.30;99.90;;;;;;5091819;28;20671;-57
2021/09/12 10:14:55;;;;;;;1.48;1.00;;;22.20;99.90;;;;;;5091866;28;20334;-57
2021/09/12 10:17:23;;;;;;;1.85;1.63;;;22.20;99.90;;;;;;5091886;28;20211;-58
2021/09/12 10:19:50;;;;;;;5.05;1.70;;;22.30;99.90;;;;;;5091999;28;20689;-57
2021/09/12 10:22:19;;;;;;;2.20;1.73;;;22.50;99.90;;;;;;5092095;28;20208;-56
2021/09/12 10:25:09;;;;;;;3.10;1.70;;;22.80;99.90;;;;;;5091658;28;20888;-57
2021/09/12 10:27:39;;;;;;;1.45;1.35;;;23.10;99.90;;;;;;5092218;28;20208;-58
2021/09/12 10:30:22;;;;;;;2.25;1.50;;;23.30;99.90;;;;;;5091649;28;20853;-56
2021/09/12 10:32:50;;;;;;;1.40;1.30;;;23.40;99.90;;;;;;5091605;28;20719;-56
2021/09/12 10:35:20;;;;;;;3.30;1.27;;;23.50;99.90;;;;;;5091791;28;20236;-57
2021/09/12 10:38:00;;;;;;;1.98;1.17;;;23.50;99.90;;;;;;5091433;28;20208;-57
2021/09/12 10:41:06;;;;;;;1.30;1.20;;;23.50;99.90;;;;;;5092036;28;20196;-57
2021/09/12 10:43:56;;;;;;;3.15;1.40;;;23.50;99.90;;;;;;5091240;28;20228;-58
2021/09/12 10:46:32;;;;;;;3.33;1.13;;;23.60;99.90;;;;;;5071818;28;20282;-57
2021/09/12 10:49:05;;;;;;;3.38;1.48;;;23.50;99.90;;;;;;5091490;28;20298;-57
2021/09/12 10:51:33;;;;;;;3.30;1.70;;;23.30;99.90;;;;;;5091458;28;20211;-57
2021/09/12 10:54:01;;;;;;;1.95;1.27;;;23.30;99.90;;;;;;5091196;28;20216;-57
2021/09/12 10:56:30;;;;;;;1.50;1.20;;;23.30;99.90;;;;;;5091282;28;20204;-57
2021/09/12 10:58:59;;;;;;;2.22;1.30;;;23.40;99.90;;;;;;5090935;28;20291;-57
2021/09/12 11:01:29;;;;;;;8.25;6.55;;;23.40;99.90;;;;;;5091224;28;20286;-57
2021/09/12 11:03:58;;;;;;;2.28;1.38;;;23.50;99.90;;;;;;5090595;28;20726;-57
2021/09/12 11:06:26;;;;;;;1.30;1.02;;;23.60;99.90;;;;;;5090671;28;20299;-57
2021/09/12 11:08:53;;;;;;;1.30;1.20;;;23.70;99.90;;;;;;5090900;28;20294;-57
2021/09/12 11:11:20;;;;;;;2.75;1.40;;;23.70;99.90;;;;;;5090880;28;20215;-57
2021/09/12 11:13:46;;;;;;;1.50;1.20;;;23.70;99.90;;;;;;5090659;28;20227;-57
2021/09/12 11:16:16;;;;;;;1.80;1.20;;;23.80;99.90;;;;;;5091079;28;20227;-58
2021/09/12 11:18:49;;;;;;;3.47;1.35;;;23.90;99.90;;;;;;5091026;28;20215;-59
2021/09/12 11:21:26;;;;;;;2.20;1.30;;;23.90;99.90;;;;;;5090991;28;20211;-57
2021/09/12 11:23:58;;;;;;;2.75;2.30;;;24.10;99.90;;;;;;5090431;28;20223;-59
2021/09/12 11:26:25;;;;;;;2.83;1.50;;;24.30;99.90;;;;;;5091031;28;20204;-58
2021/09/12 11:29:03;;;;;;;2.10;1.63;;;24.40;99.90;;;;;;5090819;28;20215;-57
2021/09/12 11:31:31;;;;;;;1.73;1.27;;;24.40;99.90;;;;;;5090967;28;20269;-56
2021/09/12 11:33:59;;;;;;;1.80;1.30;;;24.50;99.90;;;;;;5090530;28;20235;-57
2021/09/12 11:36:26;;;;;;;3.17;1.40;;;24.70;99.90;;;;;;5090758;28;20584;-58
2021/09/12 11:38:57;;;;;;;1.95;1.42;;;24.90;99.90;;;;;;5090861;28;20211;-59
2021/09/12 11:41:25;;;;;;;2.38;1.20;;;25.10;99.90;;;;;;5090864;28;20208;-58
2021/09/12 11:43:56;;;;;;;2.30;1.27;;;25.20;99.90;;;;;;5090418;28;20675;-57
2021/09/12 11:46:23;;;;;;;1.85;1.33;;;25.20;99.90;;;;;;5090861;28;20204;-57
2021/09/12 11:48:53;;;;;;;7.78;4.60;;;25.30;99.90;;;;;;5090683;28;20211;-64
2021/09/12 11:51:26;;;;;;;2.65;1.90;;;25.40;99.90;;;;;;5091089;28;20232;-58
2021/09/12 11:54:08;;;;;;;3.10;1.35;;;25.40;99.90;;;;;;5090857;28;20224;-58
2021/09/12 11:56:35;;;;;;;1.90;1.48;;;25.50;99.90;;;;;;5090850;28;20208;-58
2021/09/12 11:59:04;;;;;;;1.92;1.50;;;25.50;99.90;;;;;;5090540;28;20211;-59
2021/09/12 12:01:31;;;;;;;2.92;1.52;;;25.60;99.90;;;;;;5090452;28;20215;-58
2021/09/12 12:03:59;;;;;;;1.25;1.15;;;25.70;99.90;;;;;;5090659;28;20236;-57
2021/09/12 12:06:27;;;;;;;3.15;1.48;;;25.60;99.90;;;;;;5090716;28;20442;-57
2021/09/12 12:09:03;;;;;;;1.83;1.40;;;25.70;99.90;;;;;;5090561;28;20211;-59
2021/09/12 12:11:31;;;;;;;3.28;1.80;;;25.80;99.90;;;;;;5090507;28;20223;-59
2021/09/12 12:13:58;;;;;;;2.67;1.20;;;25.80;99.70;;;;;;5090172;28;20593;-57
2021/09/12 12:16:24;;;;;;;3.72;2.75;;;25.80;99.30;;;;;;5090553;28;20230;-60
2021/09/12 12:19:01;;;;;;;2.80;2.10;;;25.70;99.50;;;;;;5092214;28;20215;-58
2021/09/12 12:21:32;;;;;;;6.55;3.45;;;25.60;99.90;;;;;;5094195;28;20584;-57
2021/09/12 12:23:58;;;;;;;1.50;1.20;;;25.60;99.90;;;;;;5093953;28;20625;-58
2021/09/12 12:26:25;;;;;;;1.92;1.38;;;25.70;99.50;;;;;;5093913;28;20618;-58
2021/09/12 12:28:58;;;;;;;1.13;0.90;;;25.70;99.40;;;;;;5094090;28;20208;-58
2021/09/12 12:31:26;;;;;;;1.90;1.20;;;25.60;98.40;;;;;;5094359;28;20212;-57
2021/09/12 12:33:53;;;;;;;1.17;1.08;;;25.50;98.50;;;;;;5093729;28;20269;-59
2021/09/12 12:36:22;;;;;;;1.30;1.00;;;25.30;98.70;;;;;;5094456;28;20266;-58
2021/09/12 12:38:51;;;;;;;1.65;1.10;;;25.30;98.50;;;;;;5094085;28;20778;-57
2021/09/12 12:41:19;;;;;;;1.50;1.20;;;25.30;98.60;;;;;;5094021;28;20212;-58
2021/09/12 12:43:47;;;;;;;2.53;1.40;;;25.40;99.30;;;;;;5093348;28;20289;-57
2021/09/12 12:46:14;;;;;;;3.03;1.30;;;25.50;98.80;;;;;;5093962;28;20271;-57
2021/09/12 12:48:42;;;;;;;1.60;1.05;;;25.60;99.30;;;;;;5094355;28;20211;-59
2021/09/12 12:51:13;;;;;;;1.42;1.20;;;25.70;98.70;;;;;;5094633;28;20466;-58
2021/09/12 12:53:42;;;;;;;1.90;1.30;;;25.80;98.40;;;;;;5094516;28;20236;-58